McArthur, California
Current Conditions -  °F | °C
As of 7:56 AM on Monday 22 Dec 2014 (Local Time) from KMHS Reporting Station
Clear Clear  
Wind Chill: 52°   Ceiling: Unl
Heat Index: 52°   Visibility: 10mi
Dew Point: 42°   Wind: 9mph
Humidity: 69%   Direction: 350°N
Pressure: 30.3"   Gusts: 25mph
Location:  41.05°N, 121.4°W
Report Text: KMHS 221556Z AUTO 35008G22KT 10SM CLR 11/06 A3030 RMK AO2 SLP274 T01110056
Loading
Personal Weather Stations






























Interactive Weather Map New forecast layout! Learn more

10-Day Weather Forecast

Advertisements
Track Severe Weather on mobile